sensor_id;sensor_type;location;lat;lon;timestamp;P1;durP1;ratioP1;P2;durP2;ratioP2
1589;SDS011;788;48.720;9.158;2022-07-25T00:00:11;15.87;;;14.53;;
1589;SDS011;788;48.720;9.158;2022-07-25T00:02:39;15.50;;;14.10;;
1589;SDS011;788;48.720;9.158;2022-07-25T00:05:06;15.07;;;13.87;;
1589;SDS011;788;48.720;9.158;2022-07-25T00:07:33;14.37;;;13.17;;
1589;SDS011;788;48.720;9.158;2022-07-25T00:10:00;15.27;;;14.00;;
1589;SDS011;788;48.720;9.158;2022-07-25T00:12:27;15.63;;;14.33;;
1589;SDS011;788;48.720;9.158;2022-07-25T00:14:54;14.83;;;13.63;;
1589;SDS011;788;48.720;9.158;2022-07-25T00:17:22;14.90;;;13.63;;
1589;SDS011;788;48.720;9.158;2022-07-25T00:19:49;14.27;;;13.03;;
1589;SDS011;788;48.720;9.158;2022-07-25T00:22:16;14.73;;;13.30;;
1589;SDS011;788;48.720;9.158;2022-07-25T00:24:42;15.83;;;14.00;;
1589;SDS011;788;48.720;9.158;2022-07-25T00:27:09;15.07;;;13.70;;
1589;SDS011;788;48.720;9.158;2022-07-25T00:29:36;14.20;;;13.17;;
1589;SDS011;788;48.720;9.158;2022-07-25T00:32:03;14.80;;;13.60;;
1589;SDS011;788;48.720;9.158;2022-07-25T00:34:32;15.00;;;13.73;;
1589;SDS011;788;48.720;9.158;2022-07-25T00:36:59;14.13;;;13.03;;
1589;SDS011;788;48.720;9.158;2022-07-25T00:39:26;15.03;;;13.67;;
1589;SDS011;788;48.720;9.158;2022-07-25T00:41:52;15.50;;;14.00;;
1589;SDS011;788;48.720;9.158;2022-07-25T00:44:23;14.37;;;13.27;;
1589;SDS011;788;48.720;9.158;2022-07-25T00:46:50;13.83;;;12.73;;
1589;SDS011;788;48.720;9.158;2022-07-25T00:49:18;14.47;;;13.37;;
1589;SDS011;788;48.720;9.158;2022-07-25T00:51:46;15.60;;;14.10;;
1589;SDS011;788;48.720;9.158;2022-07-25T00:54:13;15.50;;;14.17;;
1589;SDS011;788;48.720;9.158;2022-07-25T00:56:40;16.17;;;14.87;;
1589;SDS011;788;48.720;9.158;2022-07-25T00:59:08;14.00;;;12.90;;
1589;SDS011;788;48.720;9.158;2022-07-25T01:01:35;15.27;;;14.07;;
1589;SDS011;788;48.720;9.158;2022-07-25T01:04:03;14.10;;;12.87;;
1589;SDS011;788;48.720;9.158;2022-07-25T01:06:30;15.47;;;14.27;;
1589;SDS011;788;48.720;9.158;2022-07-25T01:08:59;16.30;;;15.00;;
1589;SDS011;788;48.720;9.158;2022-07-25T01:11:26;16.00;;;14.60;;
1589;SDS011;788;48.720;9.158;2022-07-25T01:13:53;15.50;;;14.10;;
1589;SDS011;788;48.720;9.158;2022-07-25T01:16:20;14.77;;;13.57;;
1589;SDS011;788;48.720;9.158;2022-07-25T01:18:47;15.23;;;13.93;;
1589;SDS011;788;48.720;9.158;2022-07-25T01:21:15;14.67;;;13.47;;
1589;SDS011;788;48.720;9.158;2022-07-25T01:23:42;16.50;;;15.10;;
1589;SDS011;788;48.720;9.158;2022-07-25T01:26:09;15.93;;;14.73;;
1589;SDS011;788;48.720;9.158;2022-07-25T01:28:35;14.90;;;13.37;;
1589;SDS011;788;48.720;9.158;2022-07-25T01:31:02;14.60;;;13.40;;
1589;SDS011;788;48.720;9.158;2022-07-25T01:33:29;15.50;;;14.00;;
1589;SDS011;788;48.720;9.158;2022-07-25T01:35:56;15.97;;;14.57;;
1589;SDS011;788;48.720;9.158;2022-07-25T01:38:24;14.57;;;13.37;;
1589;SDS011;788;48.720;9.158;2022-07-25T01:40:51;15.33;;;13.90;;
1589;SDS011;788;48.720;9.158;2022-07-25T01:43:18;16.50;;;14.90;;
1589;SDS011;788;48.720;9.158;2022-07-25T01:45:45;15.00;;;13.70;;
1589;SDS011;788;48.720;9.158;2022-07-25T01:48:12;14.80;;;13.60;;
1589;SDS011;788;48.720;9.158;2022-07-25T01:50:39;13.47;;;12.37;;
1589;SDS011;788;48.720;9.158;2022-07-25T01:53:05;15.20;;;13.80;;
1589;SDS011;788;48.720;9.158;2022-07-25T01:55:34;13.67;;;12.50;;
1589;SDS011;788;48.720;9.158;2022-07-25T01:58:00;12.80;;;11.80;;
1589;SDS011;788;48.720;9.158;2022-07-25T02:00:27;13.90;;;12.70;;
1589;SDS011;788;48.720;9.158;2022-07-25T02:02:54;14.63;;;13.43;;
1589;SDS011;788;48.720;9.158;2022-07-25T02:05:35;14.17;;;12.97;;
1589;SDS011;788;48.720;9.158;2022-07-25T02:08:02;14.43;;;13.23;;
1589;SDS011;788;48.720;9.158;2022-07-25T02:10:29;14.03;;;12.83;;
1589;SDS011;788;48.720;9.158;2022-07-25T02:12:57;14.87;;;13.50;;
1589;SDS011;788;48.720;9.158;2022-07-25T02:15:23;14.90;;;13.70;;
1589;SDS011;788;48.720;9.158;2022-07-25T02:17:50;14.77;;;13.57;;
1589;SDS011;788;48.720;9.158;2022-07-25T02:20:17;14.50;;;13.17;;
1589;SDS011;788;48.720;9.158;2022-07-25T02:22:44;14.67;;;13.40;;
1589;SDS011;788;48.720;9.158;2022-07-25T02:25:11;13.90;;;12.70;;
1589;SDS011;788;48.720;9.158;2022-07-25T02:27:37;14.27;;;13.13;;
1589;SDS011;788;48.720;9.158;2022-07-25T02:30:07;13.87;;;12.77;;
1589;SDS011;788;48.720;9.158;2022-07-25T02:32:34;13.20;;;12.00;;
1589;SDS011;788;48.720;9.158;2022-07-25T02:35:01;14.50;;;13.30;;
1589;SDS011;788;48.720;9.158;2022-07-25T02:37:28;12.90;;;11.90;;
1589;SDS011;788;48.720;9.158;2022-07-25T02:39:55;12.77;;;11.77;;
1589;SDS011;788;48.720;9.158;2022-07-25T02:42:21;13.47;;;12.37;;
1589;SDS011;788;48.720;9.158;2022-07-25T02:44:48;14.30;;;13.10;;
1589;SDS011;788;48.720;9.158;2022-07-25T02:47:16;13.70;;;12.67;;
1589;SDS011;788;48.720;9.158;2022-07-25T02:49:43;14.70;;;13.50;;
1589;SDS011;788;48.720;9.158;2022-07-25T02:52:10;14.40;;;13.30;;
1589;SDS011;788;48.720;9.158;2022-07-25T02:54:36;13.50;;;12.47;;
1589;SDS011;788;48.720;9.158;2022-07-25T02:57:03;13.30;;;12.20;;
1589;SDS011;788;48.720;9.158;2022-07-25T02:59:30;14.63;;;13.53;;
1589;SDS011;788;48.720;9.158;2022-07-25T03:01:57;16.80;;;15.30;;
1589;SDS011;788;48.720;9.158;2022-07-25T03:04:25;14.90;;;13.70;;
1589;SDS011;788;48.720;9.158;2022-07-25T03:06:52;14.40;;;13.20;;
1589;SDS011;788;48.720;9.158;2022-07-25T03:09:18;14.37;;;13.27;;
1589;SDS011;788;48.720;9.158;2022-07-25T03:11:45;14.80;;;13.60;;
1589;SDS011;788;48.720;9.158;2022-07-25T03:14:14;15.20;;;13.90;;
1589;SDS011;788;48.720;9.158;2022-07-25T03:16:41;15.43;;;14.07;;
1589;SDS011;788;48.720;9.158;2022-07-25T03:19:08;15.47;;;14.17;;
1589;SDS011;788;48.720;9.158;2022-07-25T03:21:38;13.83;;;12.73;;
1589;SDS011;788;48.720;9.158;2022-07-25T03:24:05;14.83;;;13.53;;
1589;SDS011;788;48.720;9.158;2022-07-25T03:26:32;15.33;;;13.83;;
1589;SDS011;788;48.720;9.158;2022-07-25T03:28:59;15.30;;;14.10;;
1589;SDS011;788;48.720;9.158;2022-07-25T03:31:25;13.73;;;12.73;;
1589;SDS011;788;48.720;9.158;2022-07-25T03:33:52;16.10;;;14.60;;
1589;SDS011;788;48.720;9.158;2022-07-25T03:36:19;15.73;;;14.27;;
1589;SDS011;788;48.720;9.158;2022-07-25T03:38:47;15.17;;;13.93;;
1589;SDS011;788;48.720;9.158;2022-07-25T03:41:14;15.60;;;14.30;;
1589;SDS011;788;48.720;9.158;2022-07-25T03:43:40;14.67;;;13.47;;
1589;SDS011;788;48.720;9.158;2022-07-25T03:46:07;15.73;;;14.37;;
1589;SDS011;788;48.720;9.158;2022-07-25T03:48:34;13.53;;;12.33;;
1589;SDS011;788;48.720;9.158;2022-07-25T03:51:01;16.03;;;14.53;;
1589;SDS011;788;48.720;9.158;2022-07-25T03:53:28;14.30;;;13.10;;
1589;SDS011;788;48.720;9.158;2022-07-25T03:55:56;14.73;;;13.20;;
1589;SDS011;788;48.720;9.158;2022-07-25T03:58:23;15.90;;;14.70;;
1589;SDS011;788;48.720;9.158;2022-07-25T04:00:50;14.07;;;13.07;;
1589;SDS011;788;48.720;9.158;2022-07-25T04:03:16;15.07;;;13.77;;
1589;SDS011;788;48.720;9.158;2022-07-25T04:05:43;14.03;;;12.80;;
1589;SDS011;788;48.720;9.158;2022-07-25T04:08:10;15.50;;;14.20;;
1589;SDS011;788;48.720;9.158;2022-07-25T04:10:37;14.20;;;13.00;;
1589;SDS011;788;48.720;9.158;2022-07-25T04:13:06;16.23;;;14.63;;
1589;SDS011;788;48.720;9.158;2022-07-25T04:15:32;14.33;;;13.13;;
1589;SDS011;788;48.720;9.158;2022-07-25T04:17:59;14.80;;;13.50;;
1589;SDS011;788;48.720;9.158;2022-07-25T04:20:26;14.93;;;13.43;;
1589;SDS011;788;48.720;9.158;2022-07-25T04:22:53;14.93;;;13.53;;
1589;SDS011;788;48.720;9.158;2022-07-25T04:25:19;14.97;;;13.67;;
1589;SDS011;788;48.720;9.158;2022-07-25T04:27:46;16.83;;;15.30;;
1589;SDS011;788;48.720;9.158;2022-07-25T04:30:14;13.80;;;12.60;;
1589;SDS011;788;48.720;9.158;2022-07-25T04:32:41;15.70;;;14.30;;
1589;SDS011;788;48.720;9.158;2022-07-25T04:35:08;15.73;;;14.23;;
1589;SDS011;788;48.720;9.158;2022-07-25T04:37:35;15.37;;;14.07;;
1589;SDS011;788;48.720;9.158;2022-07-25T04:40:02;15.67;;;14.27;;
1589;SDS011;788;48.720;9.158;2022-07-25T04:42:29;16.53;;;15.13;;
1589;SDS011;788;48.720;9.158;2022-07-25T04:44:56;14.40;;;13.23;;
1589;SDS011;788;48.720;9.158;2022-07-25T04:47:24;15.60;;;14.30;;
1589;SDS011;788;48.720;9.158;2022-07-25T04:49:51;14.10;;;12.87;;
1589;SDS011;788;48.720;9.158;2022-07-25T04:52:17;15.40;;;14.03;;
1589;SDS011;788;48.720;9.158;2022-07-25T04:54:44;15.27;;;13.97;;
1589;SDS011;788;48.720;9.158;2022-07-25T04:57:11;16.40;;;14.90;;
1589;SDS011;788;48.720;9.158;2022-07-25T04:59:38;15.67;;;14.37;;
1589;SDS011;788;48.720;9.158;2022-07-25T05:02:05;16.07;;;14.40;;
1589;SDS011;788;48.720;9.158;2022-07-25T05:04:33;15.43;;;14.20;;
1589;SDS011;788;48.720;9.158;2022-07-25T05:07:00;14.73;;;13.23;;
1589;SDS011;788;48.720;9.158;2022-07-25T05:09:27;13.90;;;12.63;;
1589;SDS011;788;48.720;9.158;2022-07-25T05:11:54;13.50;;;12.27;;
1589;SDS011;788;48.720;9.158;2022-07-25T05:14:21;14.93;;;13.70;;
1589;SDS011;788;48.720;9.158;2022-07-25T05:16:48;13.90;;;12.70;;
1589;SDS011;788;48.720;9.158;2022-07-25T05:19:15;13.50;;;12.40;;
1589;SDS011;788;48.720;9.158;2022-07-25T05:21:43;14.47;;;13.10;;
1589;SDS011;788;48.720;9.158;2022-07-25T05:24:10;15.37;;;13.87;;
1589;SDS011;788;48.720;9.158;2022-07-25T05:26:36;13.33;;;12.33;;
1589;SDS011;788;48.720;9.158;2022-07-25T05:35:34;12.90;;;11.90;;
1589;SDS011;788;48.720;9.158;2022-07-25T05:38:02;13.33;;;12.33;;
1589;SDS011;788;48.720;9.158;2022-07-25T05:40:29;13.50;;;12.43;;
1589;SDS011;788;48.720;9.158;2022-07-25T05:42:56;13.73;;;12.40;;
1589;SDS011;788;48.720;9.158;2022-07-25T05:47:49;13.67;;;12.60;;
1589;SDS011;788;48.720;9.158;2022-07-25T05:50:18;14.13;;;13.00;;
1589;SDS011;788;48.720;9.158;2022-07-25T05:52:45;14.50;;;13.23;;
1589;SDS011;788;48.720;9.158;2022-07-25T05:55:14;13.83;;;12.73;;
1589;SDS011;788;48.720;9.158;2022-07-25T05:57:44;14.30;;;13.13;;
1589;SDS011;788;48.720;9.158;2022-07-25T06:00:14;14.03;;;12.83;;
1589;SDS011;788;48.720;9.158;2022-07-25T06:02:42;12.77;;;11.77;;
1589;SDS011;788;48.720;9.158;2022-07-25T06:05:09;11.83;;;10.93;;
1589;SDS011;788;48.720;9.158;2022-07-25T06:07:37;12.83;;;11.83;;
1589;SDS011;788;48.720;9.158;2022-07-25T06:10:05;11.80;;;10.80;;
1589;SDS011;788;48.720;9.158;2022-07-25T06:12:33;12.37;;;11.47;;
1589;SDS011;788;48.720;9.158;2022-07-25T06:15:00;11.50;;;10.60;;
1589;SDS011;788;48.720;9.158;2022-07-25T06:17:27;13.83;;;12.73;;
1589;SDS011;788;48.720;9.158;2022-07-25T06:19:54;12.20;;;11.20;;
1589;SDS011;788;48.720;9.158;2022-07-25T06:22:20;12.37;;;11.33;;
1589;SDS011;788;48.720;9.158;2022-07-25T06:24:47;13.53;;;12.30;;
1589;SDS011;788;48.720;9.158;2022-07-25T06:27:14;11.93;;;11.00;;
1589;SDS011;788;48.720;9.158;2022-07-25T06:29:42;12.43;;;11.33;;
1589;SDS011;788;48.720;9.158;2022-07-25T06:32:09;12.57;;;11.30;;
1589;SDS011;788;48.720;9.158;2022-07-25T06:34:36;13.23;;;12.20;;
1589;SDS011;788;48.720;9.158;2022-07-25T06:37:03;11.43;;;10.63;;
1589;SDS011;788;48.720;9.158;2022-07-25T06:39:30;12.60;;;11.47;;
1589;SDS011;788;48.720;9.158;2022-07-25T06:41:57;12.43;;;11.53;;
1589;SDS011;788;48.720;9.158;2022-07-25T06:44:24;13.93;;;11.77;;
1589;SDS011;788;48.720;9.158;2022-07-25T06:46:53;13.03;;;12.13;;
1589;SDS011;788;48.720;9.158;2022-07-25T06:49:20;11.47;;;10.50;;
1589;SDS011;788;48.720;9.158;2022-07-25T06:51:47;11.80;;;10.80;;
1589;SDS011;788;48.720;9.158;2022-07-25T06:54:13;12.03;;;11.03;;
1589;SDS011;788;48.720;9.158;2022-07-25T06:56:42;12.17;;;11.37;;
1589;SDS011;788;48.720;9.158;2022-07-25T06:59:09;12.23;;;11.13;;
1589;SDS011;788;48.720;9.158;2022-07-25T07:01:36;11.17;;;10.37;;
1589;SDS011;788;48.720;9.158;2022-07-25T07:04:05;11.80;;;10.83;;
1589;SDS011;788;48.720;9.158;2022-07-25T07:06:32;12.30;;;11.23;;
1589;SDS011;788;48.720;9.158;2022-07-25T07:09:14;13.10;;;11.93;;
1589;SDS011;788;48.720;9.158;2022-07-25T07:15:25;11.83;;;10.90;;
1589;SDS011;788;48.720;9.158;2022-07-25T07:17:54;11.70;;;10.80;;
1589;SDS011;788;48.720;9.158;2022-07-25T07:20:58;12.50;;;11.40;;
1589;SDS011;788;48.720;9.158;2022-07-25T07:23:27;14.23;;;11.23;;
1589;SDS011;788;48.720;9.158;2022-07-25T07:25:56;11.97;;;11.07;;
1589;SDS011;788;48.720;9.158;2022-07-25T07:28:24;12.80;;;11.80;;
1589;SDS011;788;48.720;9.158;2022-07-25T07:30:51;12.20;;;11.30;;
1589;SDS011;788;48.720;9.158;2022-07-25T07:33:18;12.47;;;11.47;;
1589;SDS011;788;48.720;9.158;2022-07-25T07:35:45;12.10;;;11.17;;
1589;SDS011;788;48.720;9.158;2022-07-25T07:38:13;12.87;;;11.97;;
1589;SDS011;788;48.720;9.158;2022-07-25T07:40:40;13.00;;;11.97;;
1589;SDS011;788;48.720;9.158;2022-07-25T07:43:07;13.90;;;12.83;;
1589;SDS011;788;48.720;9.158;2022-07-25T07:45:34;14.90;;;13.73;;
1589;SDS011;788;48.720;9.158;2022-07-25T07:48:00;13.03;;;12.10;;
1589;SDS011;788;48.720;9.158;2022-07-25T07:50:27;13.80;;;12.70;;
1589;SDS011;788;48.720;9.158;2022-07-25T07:52:55;15.13;;;13.90;;
1589;SDS011;788;48.720;9.158;2022-07-25T07:55:23;13.60;;;12.50;;
1589;SDS011;788;48.720;9.158;2022-07-25T07:58:08;12.87;;;11.90;;
1589;SDS011;788;48.720;9.158;2022-07-25T08:00:35;12.83;;;11.83;;
1589;SDS011;788;48.720;9.158;2022-07-25T08:03:03;13.53;;;12.53;;
1589;SDS011;788;48.720;9.158;2022-07-25T08:05:33;13.40;;;12.40;;
1589;SDS011;788;48.720;9.158;2022-07-25T08:08:02;12.50;;;11.60;;
1589;SDS011;788;48.720;9.158;2022-07-25T08:10:32;13.87;;;12.70;;
1589;SDS011;788;48.720;9.158;2022-07-25T08:13:01;12.87;;;12.00;;
1589;SDS011;788;48.720;9.158;2022-07-25T08:32:29;13.83;;;12.63;;
1589;SDS011;788;48.720;9.158;2022-07-25T08:35:11;12.03;;;11.03;;
1589;SDS011;788;48.720;9.158;2022-07-25T08:37:38;11.80;;;10.90;;
1589;SDS011;788;48.720;9.158;2022-07-25T08:40:05;11.60;;;10.63;;
1589;SDS011;788;48.720;9.158;2022-07-25T08:42:32;11.20;;;10.40;;
1589;SDS011;788;48.720;9.158;2022-07-25T08:45:01;12.07;;;11.07;;
1589;SDS011;788;48.720;9.158;2022-07-25T09:00:59;11.87;;;10.87;;
1589;SDS011;788;48.720;9.158;2022-07-25T09:03:26;12.63;;;11.63;;
1589;SDS011;788;48.720;9.158;2022-07-25T09:05:53;13.07;;;12.07;;
1589;SDS011;788;48.720;9.158;2022-07-25T09:08:20;11.40;;;10.50;;
1589;SDS011;788;48.720;9.158;2022-07-25T09:10:47;11.67;;;10.77;;
1589;SDS011;788;48.720;9.158;2022-07-25T09:13:15;11.80;;;10.90;;
1589;SDS011;788;48.720;9.158;2022-07-25T09:15:43;11.57;;;10.67;;
1589;SDS011;788;48.720;9.158;2022-07-25T09:18:13;12.23;;;11.37;;
1589;SDS011;788;48.720;9.158;2022-07-25T09:20:42;12.53;;;11.57;;
1589;SDS011;788;48.720;9.158;2022-07-25T09:23:10;12.00;;;11.20;;
1589;SDS011;788;48.720;9.158;2022-07-25T09:25:41;11.13;;;10.33;;
1589;SDS011;788;48.720;9.158;2022-07-25T09:28:08;11.90;;;11.00;;
1589;SDS011;788;48.720;9.158;2022-07-25T09:30:39;12.63;;;11.57;;
1589;SDS011;788;48.720;9.158;2022-07-25T09:33:20;12.53;;;11.53;;
1589;SDS011;788;48.720;9.158;2022-07-25T09:35:48;10.77;;;10.03;;
1589;SDS011;788;48.720;9.158;2022-07-25T09:38:16;11.60;;;10.80;;
1589;SDS011;788;48.720;9.158;2022-07-25T09:40:52;10.87;;;10.10;;
1589;SDS011;788;48.720;9.158;2022-07-25T09:43:21;11.20;;;10.37;;
1589;SDS011;788;48.720;9.158;2022-07-25T09:45:48;11.03;;;10.00;;
1589;SDS011;788;48.720;9.158;2022-07-25T09:48:17;11.80;;;10.90;;
1589;SDS011;788;48.720;9.158;2022-07-25T09:50:46;12.93;;;11.83;;
1589;SDS011;788;48.720;9.158;2022-07-25T09:53:13;12.17;;;11.20;;
1589;SDS011;788;48.720;9.158;2022-07-25T09:55:39;11.37;;;10.57;;
1589;SDS011;788;48.720;9.158;2022-07-25T09:58:06;10.90;;;10.10;;
1589;SDS011;788;48.720;9.158;2022-07-25T10:00:33;13.13;;;12.20;;
1589;SDS011;788;48.720;9.158;2022-07-25T10:03:04;12.17;;;11.20;;
1589;SDS011;788;48.720;9.158;2022-07-25T10:05:45;12.07;;;11.17;;
1589;SDS011;788;48.720;9.158;2022-07-25T10:08:21;13.33;;;12.33;;
1589;SDS011;788;48.720;9.158;2022-07-25T10:10:50;11.40;;;10.40;;
1589;SDS011;788;48.720;9.158;2022-07-25T10:13:27;11.57;;;10.77;;
1589;SDS011;788;48.720;9.158;2022-07-25T10:15:56;13.00;;;12.07;;
1589;SDS011;788;48.720;9.158;2022-07-25T10:18:24;12.80;;;11.90;;
1589;SDS011;788;48.720;9.158;2022-07-25T10:20:55;12.70;;;11.60;;
1589;SDS011;788;48.720;9.158;2022-07-25T10:23:33;12.17;;;11.17;;
1589;SDS011;788;48.720;9.158;2022-07-25T10:26:01;11.20;;;10.40;;
1589;SDS011;788;48.720;9.158;2022-07-25T10:28:39;12.07;;;11.27;;
1589;SDS011;788;48.720;9.158;2022-07-25T10:31:18;11.30;;;10.40;;
1589;SDS011;788;48.720;9.158;2022-07-25T10:33:47;11.27;;;10.47;;
1589;SDS011;788;48.720;9.158;2022-07-25T10:36:20;10.80;;;10.00;;
1589;SDS011;788;48.720;9.158;2022-07-25T10:38:49;11.10;;;10.40;;
1589;SDS011;788;48.720;9.158;2022-07-25T10:41:17;12.47;;;11.57;;
1589;SDS011;788;48.720;9.158;2022-07-25T10:43:45;10.60;;;9.80;;
1589;SDS011;788;48.720;9.158;2022-07-25T10:46:17;11.33;;;10.53;;
1589;SDS011;788;48.720;9.158;2022-07-25T10:48:55;10.17;;;9.43;;
1589;SDS011;788;48.720;9.158;2022-07-25T10:51:26;10.97;;;10.17;;
1589;SDS011;788;48.720;9.158;2022-07-25T10:53:54;11.57;;;10.53;;
1589;SDS011;788;48.720;9.158;2022-07-25T10:56:22;9.80;;;9.10;;
1589;SDS011;788;48.720;9.158;2022-07-25T10:58:51;9.30;;;8.70;;
1589;SDS011;788;48.720;9.158;2022-07-25T11:01:20;9.77;;;9.07;;
1589;SDS011;788;48.720;9.158;2022-07-25T11:03:49;9.80;;;9.20;;
1589;SDS011;788;48.720;9.158;2022-07-25T11:06:16;9.33;;;8.50;;
1589;SDS011;788;48.720;9.158;2022-07-25T11:08:56;9.77;;;8.97;;
1589;SDS011;788;48.720;9.158;2022-07-25T11:11:31;7.77;;;7.27;;
1589;SDS011;788;48.720;9.158;2022-07-25T11:14:02;7.10;;;6.60;;
1589;SDS011;788;48.720;9.158;2022-07-25T11:16:29;5.80;;;5.37;;
1589;SDS011;788;48.720;9.158;2022-07-25T11:18:56;6.13;;;5.70;;
1589;SDS011;788;48.720;9.158;2022-07-25T11:21:23;6.50;;;6.00;;
1589;SDS011;788;48.720;9.158;2022-07-25T11:23:50;6.63;;;6.23;;
1589;SDS011;788;48.720;9.158;2022-07-25T11:26:19;5.93;;;5.50;;
1589;SDS011;788;48.720;9.158;2022-07-25T11:28:46;6.07;;;5.47;;
1589;SDS011;788;48.720;9.158;2022-07-25T11:31:14;5.27;;;4.97;;
1589;SDS011;788;48.720;9.158;2022-07-25T11:33:44;4.80;;;4.50;;
1589;SDS011;788;48.720;9.158;2022-07-25T11:36:12;5.73;;;5.37;;
1589;SDS011;788;48.720;9.158;2022-07-25T11:38:40;6.00;;;5.50;;
1589;SDS011;788;48.720;9.158;2022-07-25T11:41:07;6.43;;;6.03;;
1589;SDS011;788;48.720;9.158;2022-07-25T11:43:36;5.60;;;5.30;;
1589;SDS011;788;48.720;9.158;2022-07-25T11:46:03;5.20;;;4.90;;
1589;SDS011;788;48.720;9.158;2022-07-25T11:48:32;5.93;;;5.53;;
1589;SDS011;788;48.720;9.158;2022-07-25T11:51:11;5.37;;;5.07;;
1589;SDS011;788;48.720;9.158;2022-07-25T11:53:40;6.33;;;5.83;;
1589;SDS011;788;48.720;9.158;2022-07-25T11:56:14;7.50;;;6.90;;
1589;SDS011;788;48.720;9.158;2022-07-25T11:58:48;5.90;;;5.50;;
1589;SDS011;788;48.720;9.158;2022-07-25T12:01:22;6.70;;;6.30;;
1589;SDS011;788;48.720;9.158;2022-07-25T12:03:50;5.60;;;5.27;;
1589;SDS011;788;48.720;9.158;2022-07-25T12:06:17;6.17;;;5.77;;
1589;SDS011;788;48.720;9.158;2022-07-25T12:08:43;6.63;;;6.23;;
1589;SDS011;788;48.720;9.158;2022-07-25T12:11:17;5.70;;;5.30;;
1589;SDS011;788;48.720;9.158;2022-07-25T12:13:46;6.00;;;5.60;;
1589;SDS011;788;48.720;9.158;2022-07-25T12:16:13;7.13;;;6.63;;
1589;SDS011;788;48.720;9.158;2022-07-25T12:18:41;5.80;;;5.50;;
1589;SDS011;788;48.720;9.158;2022-07-25T12:21:08;7.27;;;6.87;;
1589;SDS011;788;48.720;9.158;2022-07-25T12:23:35;6.57;;;6.27;;
1589;SDS011;788;48.720;9.158;2022-07-25T12:26:03;7.27;;;6.77;;
1589;SDS011;788;48.720;9.158;2022-07-25T12:28:30;7.10;;;6.63;;
1589;SDS011;788;48.720;9.158;2022-07-25T12:30:58;7.13;;;6.63;;
1589;SDS011;788;48.720;9.158;2022-07-25T12:33:24;7.27;;;6.80;;
1589;SDS011;788;48.720;9.158;2022-07-25T12:35:51;7.70;;;7.10;;
1589;SDS011;788;48.720;9.158;2022-07-25T12:38:18;6.70;;;6.30;;
1589;SDS011;788;48.720;9.158;2022-07-25T12:40:45;6.57;;;6.07;;
1589;SDS011;788;48.720;9.158;2022-07-25T12:43:12;7.40;;;6.90;;
1589;SDS011;788;48.720;9.158;2022-07-25T12:45:38;7.27;;;6.77;;
1589;SDS011;788;48.720;9.158;2022-07-25T12:48:07;7.43;;;6.93;;
1589;SDS011;788;48.720;9.158;2022-07-25T12:50:34;6.33;;;5.93;;
1589;SDS011;788;48.720;9.158;2022-07-25T12:53:01;6.90;;;6.40;;
1589;SDS011;788;48.720;9.158;2022-07-25T12:55:28;5.90;;;5.60;;
1589;SDS011;788;48.720;9.158;2022-07-25T12:57:55;7.00;;;6.47;;
1589;SDS011;788;48.720;9.158;2022-07-25T13:00:22;6.00;;;5.70;;
1589;SDS011;788;48.720;9.158;2022-07-25T13:02:50;6.50;;;6.10;;
1589;SDS011;788;48.720;9.158;2022-07-25T13:05:21;6.93;;;6.50;;
1589;SDS011;788;48.720;9.158;2022-07-25T13:07:48;8.97;;;8.27;;
1589;SDS011;788;48.720;9.158;2022-07-25T13:10:16;8.10;;;7.50;;
1589;SDS011;788;48.720;9.158;2022-07-25T13:12:43;8.63;;;7.93;;
1589;SDS011;788;48.720;9.158;2022-07-25T13:15:10;7.33;;;6.83;;
1589;SDS011;788;48.720;9.158;2022-07-25T13:17:37;7.27;;;6.77;;
1589;SDS011;788;48.720;9.158;2022-07-25T13:20:06;7.37;;;6.77;;
1589;SDS011;788;48.720;9.158;2022-07-25T13:22:35;8.03;;;7.53;;
1589;SDS011;788;48.720;9.158;2022-07-25T13:25:03;7.37;;;6.87;;
1589;SDS011;788;48.720;9.158;2022-07-25T13:27:30;7.20;;;6.70;;
1589;SDS011;788;48.720;9.158;2022-07-25T13:29:56;8.67;;;8.07;;
1589;SDS011;788;48.720;9.158;2022-07-25T13:32:23;8.60;;;8.03;;
1589;SDS011;788;48.720;9.158;2022-07-25T13:34:52;7.50;;;6.90;;
1589;SDS011;788;48.720;9.158;2022-07-25T13:37:19;7.17;;;6.67;;
1589;SDS011;788;48.720;9.158;2022-07-25T13:39:47;7.57;;;7.03;;
1589;SDS011;788;48.720;9.158;2022-07-25T13:42:14;8.10;;;7.40;;
1589;SDS011;788;48.720;9.158;2022-07-25T13:44:41;7.73;;;7.23;;
1589;SDS011;788;48.720;9.158;2022-07-25T13:47:08;8.30;;;7.70;;
1589;SDS011;788;48.720;9.158;2022-07-25T13:49:34;8.33;;;7.73;;
1589;SDS011;788;48.720;9.158;2022-07-25T13:52:02;9.60;;;8.90;;
1589;SDS011;788;48.720;9.158;2022-07-25T13:54:29;7.77;;;7.27;;
1589;SDS011;788;48.720;9.158;2022-07-25T13:56:57;9.20;;;8.37;;
1589;SDS011;788;48.720;9.158;2022-07-25T13:59:24;9.20;;;8.60;;
1589;SDS011;788;48.720;9.158;2022-07-25T14:01:51;9.00;;;8.40;;
1589;SDS011;788;48.720;9.158;2022-07-25T14:04:17;9.50;;;8.60;;
1589;SDS011;788;48.720;9.158;2022-07-25T14:06:44;9.53;;;8.73;;
1589;SDS011;788;48.720;9.158;2022-07-25T14:09:15;8.67;;;8.07;;
1589;SDS011;788;48.720;9.158;2022-07-25T14:11:42;9.70;;;9.00;;
1589;SDS011;788;48.720;9.158;2022-07-25T14:14:11;9.23;;;8.63;;
1589;SDS011;788;48.720;9.158;2022-07-25T14:16:38;9.00;;;8.30;;
1589;SDS011;788;48.720;9.158;2022-07-25T14:19:04;9.97;;;9.17;;
1589;SDS011;788;48.720;9.158;2022-07-25T14:21:31;10.13;;;9.33;;
1589;SDS011;788;48.720;9.158;2022-07-25T14:23:58;9.80;;;9.00;;
1589;SDS011;788;48.720;9.158;2022-07-25T14:26:25;10.70;;;9.80;;
1589;SDS011;788;48.720;9.158;2022-07-25T14:28:53;10.60;;;9.80;;
1589;SDS011;788;48.720;9.158;2022-07-25T14:31:22;9.77;;;8.90;;
1589;SDS011;788;48.720;9.158;2022-07-25T14:33:48;10.30;;;9.57;;
1589;SDS011;788;48.720;9.158;2022-07-25T14:36:15;11.10;;;10.00;;
1589;SDS011;788;48.720;9.158;2022-07-25T14:38:42;9.10;;;8.50;;
1589;SDS011;788;48.720;9.158;2022-07-25T14:41:11;10.93;;;9.93;;
1589;SDS011;788;48.720;9.158;2022-07-25T14:43:38;9.07;;;8.43;;
1589;SDS011;788;48.720;9.158;2022-07-25T14:46:05;10.13;;;9.30;;
1589;SDS011;788;48.720;9.158;2022-07-25T14:48:35;9.97;;;9.13;;
1589;SDS011;788;48.720;9.158;2022-07-25T14:51:02;10.10;;;9.20;;
1589;SDS011;788;48.720;9.158;2022-07-25T14:53:30;10.17;;;9.47;;
1589;SDS011;788;48.720;9.158;2022-07-25T14:55:57;10.93;;;10.03;;
1589;SDS011;788;48.720;9.158;2022-07-25T14:58:24;10.30;;;9.60;;
1589;SDS011;788;48.720;9.158;2022-07-25T15:00:51;10.20;;;9.50;;
1589;SDS011;788;48.720;9.158;2022-07-25T15:03:18;10.67;;;9.97;;
1589;SDS011;788;48.720;9.158;2022-07-25T15:05:46;9.90;;;9.10;;
1589;SDS011;788;48.720;9.158;2022-07-25T15:08:13;11.43;;;10.63;;
1589;SDS011;788;48.720;9.158;2022-07-25T15:10:40;10.50;;;9.80;;
1589;SDS011;788;48.720;9.158;2022-07-25T15:13:06;10.10;;;9.40;;
1589;SDS011;788;48.720;9.158;2022-07-25T15:15:33;10.27;;;9.47;;
1589;SDS011;788;48.720;9.158;2022-07-25T15:18:00;10.27;;;9.30;;
1589;SDS011;788;48.720;9.158;2022-07-25T15:20:27;10.03;;;9.30;;
1589;SDS011;788;48.720;9.158;2022-07-25T15:22:55;10.47;;;9.57;;
1589;SDS011;788;48.720;9.158;2022-07-25T15:25:22;10.53;;;9.73;;
1589;SDS011;788;48.720;9.158;2022-07-25T15:27:48;9.60;;;9.00;;
1589;SDS011;788;48.720;9.158;2022-07-25T15:30:15;10.47;;;9.67;;
1589;SDS011;788;48.720;9.158;2022-07-25T15:32:42;10.43;;;9.63;;
1589;SDS011;788;48.720;9.158;2022-07-25T15:35:09;11.20;;;10.30;;
1589;SDS011;788;48.720;9.158;2022-07-25T15:37:36;10.53;;;9.80;;
1589;SDS011;788;48.720;9.158;2022-07-25T15:40:05;10.90;;;10.10;;
1589;SDS011;788;48.720;9.158;2022-07-25T15:42:32;10.23;;;9.33;;
1589;SDS011;788;48.720;9.158;2022-07-25T15:44:59;10.50;;;9.80;;
1589;SDS011;788;48.720;9.158;2022-07-25T15:47:26;10.17;;;9.47;;
1589;SDS011;788;48.720;9.158;2022-07-25T15:49:53;10.43;;;9.53;;
1589;SDS011;788;48.720;9.158;2022-07-25T15:52:20;9.17;;;8.57;;
1589;SDS011;788;48.720;9.158;2022-07-25T15:54:48;9.73;;;8.90;;
1589;SDS011;788;48.720;9.158;2022-07-25T15:57:17;10.20;;;9.40;;